createdAt,value
2023-02-22T00:01:35.742Z,19.95
2023-02-22T00:04:05.801Z,17.05
2023-02-22T00:06:42.262Z,32.35
2023-02-22T00:09:11.349Z,29.55
2023-02-22T00:11:40.019Z,15.85
2023-02-22T00:14:08.685Z,42.55
2023-02-22T00:16:39.392Z,15.05
2023-02-22T00:19:08.804Z,13.77
2023-02-22T00:21:37.543Z,14.73
2023-02-22T00:24:23.522Z,12.98
2023-02-22T00:27:00.276Z,21.58
2023-02-22T00:29:29.742Z,21.83
2023-02-22T00:32:00.044Z,15.80
2023-02-22T00:34:31.989Z,11.82
2023-02-22T00:37:03.060Z,15.10
2023-02-22T00:39:31.872Z,11.85
2023-02-22T00:42:04.156Z,16.00
2023-02-22T00:44:33.247Z,16.05
2023-02-22T00:47:04.950Z,21.05
2023-02-22T00:49:33.721Z,23.88
2023-02-22T00:52:02.785Z,17.30
2023-02-22T00:54:31.418Z,14.35
2023-02-22T00:56:59.995Z,17.30
2023-02-22T00:59:31.281Z,19.40
2023-02-22T01:02:00.154Z,15.77
2023-02-22T01:04:30.204Z,23.37
2023-02-22T01:07:00.661Z,11.50
2023-02-22T01:09:30.275Z,11.68
2023-02-22T01:11:59.369Z,16.50
2023-02-22T01:14:29.424Z,16.27
2023-02-22T01:16:58.684Z,12.07
2023-02-22T01:19:27.338Z,23.38
2023-02-22T01:21:58.990Z,15.27
2023-02-22T01:24:28.340Z,13.30
2023-02-22T01:26:56.996Z,12.57
2023-02-22T01:29:25.684Z,9.57
2023-02-22T01:31:57.209Z,13.45
2023-02-22T01:34:26.654Z,14.70
2023-02-22T01:36:55.333Z,13.73
2023-02-22T01:39:25.354Z,14.18
2023-02-22T01:41:54.595Z,12.45
2023-02-22T01:44:29.412Z,14.85
2023-02-22T01:47:03.040Z,13.05
2023-02-22T01:49:36.754Z,13.80
2023-02-22T01:52:09.853Z,12.60
2023-02-22T01:54:43.575Z,13.90
2023-02-22T01:57:19.349Z,15.57
2023-02-22T01:59:50.824Z,15.73
2023-02-22T02:02:21.815Z,15.65
2023-02-22T02:04:50.854Z,30.38
2023-02-22T02:07:21.302Z,14.90
2023-02-22T02:09:58.910Z,12.95
2023-02-22T02:12:29.026Z,14.10
2023-02-22T02:15:18.942Z,16.17
2023-02-22T02:17:48.136Z,12.85
2023-02-22T02:20:23.555Z,12.75
2023-02-22T02:23:01.027Z,15.40
2023-02-22T02:26:04.079Z,16.65
2023-02-22T02:29:15.563Z,14.35
2023-02-22T02:32:19.773Z,15.75
2023-02-22T02:34:56.038Z,15.70
2023-02-22T02:37:35.314Z,14.10
2023-02-22T02:40:13.112Z,15.35
2023-02-22T02:42:46.006Z,12.23
2023-02-22T02:45:20.439Z,15.32
2023-02-22T02:47:53.939Z,15.70
2023-02-22T02:50:25.226Z,14.63
2023-02-22T02:52:57.074Z,17.00
2023-02-22T02:55:26.175Z,16.50
2023-02-22T02:57:55.830Z,14.67
2023-02-22T03:00:28.887Z,13.02
2023-02-22T03:03:07.773Z,17.70
2023-02-22T03:05:52.699Z,18.08
2023-02-22T03:08:26.909Z,17.05
2023-02-22T03:11:02.514Z,18.05
2023-02-22T03:13:36.381Z,22.48
2023-02-22T03:16:13.933Z,19.70
2023-02-22T03:18:48.532Z,14.35
2023-02-22T03:21:23.794Z,17.15
2023-02-22T03:23:58.761Z,14.38
2023-02-22T03:26:31.377Z,15.30
2023-02-22T03:29:05.763Z,11.13
2023-02-22T03:31:40.896Z,15.05
2023-02-22T03:34:14.442Z,15.02
2023-02-22T03:36:48.038Z,13.90
2023-02-22T03:39:20.636Z,11.25
2023-02-22T03:41:54.308Z,12.35
2023-02-22T03:44:27.936Z,12.40
2023-02-22T03:46:58.063Z,12.13
2023-02-22T03:49:35.134Z,11.85
2023-02-22T03:52:05.643Z,12.65
2023-02-22T03:54:35.940Z,12.65
2023-02-22T03:57:08.373Z,12.93
2023-02-22T03:59:40.706Z,12.52
2023-02-22T04:02:09.814Z,14.13
2023-02-22T04:04:40.535Z,13.55
2023-02-22T04:07:10.141Z,15.15
2023-02-22T04:09:40.442Z,18.27
2023-02-22T04:12:09.729Z,17.52
2023-02-22T04:14:53.546Z,16.60
2023-02-22T04:17:22.497Z,17.87
2023-02-22T04:19:52.774Z,18.60
2023-02-22T04:22:23.898Z,20.88
2023-02-22T04:24:53.954Z,20.00
2023-02-22T04:27:23.971Z,21.70
2023-02-22T04:29:52.663Z,22.55
2023-02-22T04:32:21.283Z,23.40
2023-02-22T04:34:50.490Z,23.63
2023-02-22T04:37:20.509Z,22.57
2023-02-22T04:39:49.287Z,21.38
2023-02-22T04:42:19.504Z,21.30
2023-02-22T04:44:48.150Z,20.63
2023-02-22T04:47:17.921Z,19.80
2023-02-22T04:49:46.911Z,15.10
2023-02-22T04:52:16.113Z,13.93
2023-02-22T04:54:46.807Z,15.10
2023-02-22T04:57:15.391Z,13.68
2023-02-22T04:59:44.779Z,12.27
2023-02-22T05:02:14.614Z,14.10
2023-02-22T05:04:43.422Z,16.23
2023-02-22T05:07:12.370Z,12.43
2023-02-22T05:09:40.917Z,14.20
2023-02-22T05:12:11.178Z,13.32
2023-02-22T05:14:40.066Z,14.75
2023-02-22T05:17:09.120Z,14.88
2023-02-22T05:19:37.697Z,15.68
2023-02-22T05:22:07.351Z,19.00
2023-02-22T05:24:35.990Z,17.02
2023-02-22T05:27:05.765Z,15.48
2023-02-22T05:32:04.297Z,14.02
2023-02-22T05:34:33.233Z,13.17
2023-02-22T05:37:02.583Z,16.63
2023-02-22T05:39:32.467Z,16.27
2023-02-22T05:42:01.679Z,18.67
2023-02-22T05:44:30.936Z,15.00
2023-02-22T05:47:01.230Z,16.52
2023-02-22T05:49:30.076Z,13.52
2023-02-22T05:52:00.019Z,15.13
2023-02-22T05:54:28.666Z,13.95
2023-02-22T05:56:57.484Z,12.52
2023-02-22T05:59:26.379Z,11.57
2023-02-22T06:01:55.061Z,12.43
2023-02-22T06:04:25.490Z,14.65
2023-02-22T06:06:55.425Z,14.85
2023-02-22T06:09:24.216Z,16.98
2023-02-22T06:11:54.522Z,17.40
2023-02-22T06:14:25.675Z,15.20
2023-02-22T06:16:54.972Z,18.52
2023-02-22T06:19:26.532Z,13.68
2023-02-22T06:21:57.099Z,16.05
2023-02-22T06:24:25.945Z,15.77
2023-02-22T06:26:57.094Z,15.40
2023-02-22T06:29:26.475Z,16.83
2023-02-22T06:31:56.146Z,21.08
2023-02-22T06:39:23.976Z,18.17
2023-02-22T06:41:52.679Z,20.40
2023-02-22T06:44:21.554Z,13.85
2023-02-22T06:46:51.599Z,18.47
2023-02-22T06:49:21.647Z,14.82
2023-02-22T06:51:51.802Z,17.33
2023-02-22T06:54:21.312Z,17.63
2023-02-22T06:56:50.822Z,17.98
2023-02-22T06:59:19.574Z,14.38
2023-02-22T07:01:48.514Z,17.75
2023-02-22T07:04:17.928Z,15.60
2023-02-22T07:06:48.351Z,17.70
2023-02-22T07:09:21.605Z,17.60
2023-02-22T07:11:50.640Z,17.73
2023-02-22T07:14:21.891Z,16.45
2023-02-22T07:16:50.544Z,13.57
2023-02-22T07:19:19.332Z,18.58
2023-02-22T07:21:49.130Z,16.02
2023-02-22T07:24:19.159Z,11.95
2023-02-22T07:26:48.681Z,15.45
2023-02-22T07:29:17.349Z,17.45
2023-02-22T07:31:47.072Z,20.30
2023-02-22T07:34:15.673Z,15.73
2023-02-22T07:36:44.375Z,15.13
2023-02-22T07:39:12.943Z,18.02
2023-02-22T07:41:42.917Z,19.45
2023-02-22T07:44:23.852Z,17.73
2023-02-22T07:46:53.058Z,15.23
2023-02-22T07:49:21.889Z,17.53
2023-02-22T07:51:51.023Z,23.53
2023-02-22T07:54:19.960Z,20.30
2023-02-22T07:56:50.902Z,17.42
2023-02-22T07:59:20.094Z,17.20
2023-02-22T08:01:51.171Z,22.67
2023-02-22T08:04:21.206Z,19.50
2023-02-22T08:06:53.033Z,14.75
2023-02-22T08:09:24.315Z,12.88
2023-02-22T08:11:54.757Z,16.08
2023-02-22T08:14:23.754Z,20.52
2023-02-22T08:16:52.414Z,19.67
2023-02-22T08:19:23.109Z,18.48
2023-02-22T08:21:52.654Z,19.35
2023-02-22T08:24:21.758Z,32.13
2023-02-22T08:26:50.662Z,21.45
2023-02-22T08:29:23.208Z,22.52
2023-02-22T08:31:54.386Z,24.17
2023-02-22T08:34:25.219Z,20.27
2023-02-22T08:36:54.035Z,22.83
2023-02-22T08:39:23.038Z,25.10
2023-02-22T08:41:52.046Z,26.58
2023-02-22T08:44:24.391Z,21.83
2023-02-22T08:46:53.483Z,27.55
2023-02-22T08:49:22.798Z,25.10
2023-02-22T08:51:52.759Z,19.27
2023-02-22T08:56:52.087Z,24.45
2023-02-22T08:59:24.645Z,21.08
2023-02-22T09:01:56.321Z,21.80
2023-02-22T09:04:25.135Z,22.30
2023-02-22T09:06:53.734Z,18.35
2023-02-22T09:09:22.884Z,19.60
2023-02-22T09:11:53.193Z,20.17
2023-02-22T09:14:23.590Z,21.75
2023-02-22T09:16:52.537Z,24.85
2023-02-22T09:19:24.726Z,26.65
2023-02-22T09:21:57.199Z,20.90
2023-02-22T09:24:26.457Z,24.25
2023-02-22T09:26:55.363Z,18.98
2023-02-22T09:29:27.368Z,24.03
2023-02-22T09:31:57.253Z,19.27
2023-02-22T09:34:29.806Z,23.65
2023-02-22T09:36:58.885Z,26.00
2023-02-22T09:39:27.518Z,27.27
2023-02-22T09:42:04.646Z,27.40
2023-02-22T09:44:40.175Z,36.22
2023-02-22T09:47:18.368Z,29.42
2023-02-22T09:49:58.206Z,28.40
2023-02-22T09:55:08.644Z,22.00
2023-02-22T09:57:40.786Z,23.05
2023-02-22T10:00:18.049Z,25.92
2023-02-22T10:02:52.223Z,23.00
2023-02-22T10:05:27.699Z,25.83
2023-02-22T10:08:01.137Z,24.52
2023-02-22T10:10:36.853Z,27.80
2023-02-22T10:13:16.467Z,22.45
2023-02-22T10:15:55.985Z,22.25
2023-02-22T10:19:00.646Z,30.80
2023-02-22T10:21:59.392Z,24.70
2023-02-22T10:24:39.916Z,33.05
2023-02-22T10:27:13.079Z,32.00
2023-02-22T10:29:44.650Z,31.85
2023-02-22T10:32:22.045Z,35.72
2023-02-22T10:34:53.084Z,29.50
2023-02-22T10:37:29.439Z,30.45
2023-02-22T10:40:06.456Z,26.65
2023-02-22T10:42:38.625Z,29.33
2023-02-22T10:45:20.315Z,30.33
2023-02-22T10:47:59.144Z,24.75
2023-02-22T10:50:30.326Z,23.57
2023-02-22T10:53:07.484Z,29.48
2023-02-22T10:55:40.970Z,26.42
2023-02-22T10:58:30.301Z,35.63
2023-02-22T11:01:02.062Z,27.38
2023-02-22T11:03:33.403Z,34.35
2023-02-22T11:06:20.423Z,26.00
2023-02-22T11:08:52.040Z,18.13
2023-02-22T11:11:24.896Z,22.90
2023-02-22T11:13:56.851Z,24.00
2023-02-22T11:16:36.296Z,23.55
2023-02-22T11:19:21.124Z,22.33
2023-02-22T11:22:04.734Z,24.08
2023-02-22T11:24:49.457Z,23.77
2023-02-22T11:27:31.787Z,23.63
2023-02-22T11:30:13.933Z,22.60
2023-02-22T11:32:51.272Z,22.52
2023-02-22T11:35:35.641Z,33.47
2023-02-22T11:38:22.455Z,25.98
2023-02-22T11:41:09.442Z,23.58
2023-02-22T11:43:39.854Z,24.70
2023-02-22T11:46:21.904Z,23.42
2023-02-22T11:49:04.732Z,29.70
2023-02-22T11:51:49.517Z,24.65
2023-02-22T11:54:41.963Z,28.98
2023-02-22T11:57:30.922Z,24.60
2023-02-22T12:00:16.620Z,21.73
2023-02-22T12:03:08.847Z,25.15
2023-02-22T12:06:08.351Z,29.25
2023-02-22T12:08:55.012Z,26.58
2023-02-22T12:11:32.458Z,31.00
2023-02-22T12:14:11.619Z,26.17
2023-02-22T12:17:00.213Z,23.30
2023-02-22T12:19:36.279Z,24.10
2023-02-22T12:22:16.151Z,27.00
2023-02-22T12:25:08.514Z,21.48
2023-02-22T12:27:46.455Z,25.17
2023-02-22T12:30:23.797Z,24.23
2023-02-22T12:32:56.431Z,25.33
2023-02-22T12:35:29.762Z,28.50
2023-02-22T12:38:05.986Z,23.85
2023-02-22T12:40:45.180Z,23.40
2023-02-22T12:43:22.874Z,26.40
2023-02-22T12:45:56.192Z,38.35
2023-02-22T12:48:39.720Z,32.47
2023-02-22T12:51:24.043Z,25.92
2023-02-22T12:54:02.639Z,72.78
2023-02-22T12:56:41.726Z,39.58
2023-02-22T12:59:20.289Z,41.58
2023-02-22T13:01:55.252Z,28.10
2023-02-22T13:04:26.837Z,50.15
2023-02-22T13:07:05.867Z,33.60
2023-02-22T13:09:59.716Z,26.43
2023-02-22T13:12:38.582Z,27.77
2023-02-22T13:15:13.709Z,26.23
2023-02-22T13:17:50.680Z,69.95
2023-02-22T13:20:28.315Z,41.95
2023-02-22T13:23:06.868Z,27.45
2023-02-22T13:25:44.437Z,58.47
2023-02-22T13:28:29.734Z,34.70
2023-02-22T13:31:18.786Z,29.42
2023-02-22T13:34:05.916Z,44.13
2023-02-22T13:36:39.788Z,25.63
2023-02-22T13:39:47.967Z,24.15
2023-02-22T13:42:37.992Z,24.08
2023-02-22T13:45:42.149Z,23.48
2023-02-22T13:48:25.751Z,26.55
2023-02-22T13:51:25.295Z,23.80
2023-02-22T13:53:56.944Z,31.33
2023-02-22T13:56:26.840Z,33.28
2023-02-22T14:04:42.466Z,37.95
2023-02-22T14:07:59.625Z,55.90
2023-02-22T14:10:47.629Z,42.00
2023-02-22T14:13:17.452Z,33.42
2023-02-22T14:16:38.684Z,33.80
2023-02-22T14:19:16.775Z,32.40
2023-02-22T14:22:02.414Z,27.52
2023-02-22T14:24:45.694Z,70.13
2023-02-22T14:27:18.805Z,34.85
2023-02-22T14:29:55.257Z,40.30
2023-02-22T14:32:32.578Z,22.48
2023-02-22T14:35:14.305Z,29.52
2023-02-22T14:37:55.093Z,28.17
2023-02-22T14:40:27.836Z,28.90
2023-02-22T14:43:04.655Z,40.35
2023-02-22T14:45:39.198Z,26.05
2023-02-22T14:48:25.209Z,35.35
2023-02-22T14:51:11.778Z,24.33
2023-02-22T14:53:53.356Z,35.85
2023-02-22T14:56:31.848Z,21.85
2023-02-22T14:59:14.718Z,26.98
2023-02-22T15:01:58.385Z,26.38
2023-02-22T15:04:33.198Z,23.55
2023-02-22T15:07:27.397Z,26.63
2023-02-22T15:10:26.150Z,25.48
2023-02-22T15:13:09.208Z,41.78
2023-02-22T15:15:43.941Z,33.80
2023-02-22T15:18:27.188Z,38.55
2023-02-22T15:21:03.835Z,35.42
2023-02-22T15:23:45.605Z,32.30
2023-02-22T15:26:19.981Z,32.53
2023-02-22T15:29:00.736Z,27.00
2023-02-22T15:31:38.938Z,25.90
2023-02-22T15:34:24.783Z,44.70
2023-02-22T15:36:56.394Z,38.10
2023-02-22T15:39:36.757Z,42.95
2023-02-22T15:42:10.919Z,41.92
2023-02-22T15:44:44.028Z,39.22
2023-02-22T15:47:23.033Z,33.40
2023-02-22T15:50:16.883Z,28.05
2023-02-22T15:52:58.302Z,28.92
2023-02-22T15:55:31.215Z,33.15
2023-02-22T15:58:04.130Z,26.60
2023-02-22T16:00:38.240Z,27.10
2023-02-22T16:03:12.743Z,25.73
2023-02-22T16:05:45.398Z,44.22
2023-02-22T16:08:19.205Z,69.93
2023-02-22T16:10:54.866Z,62.25
2023-02-22T16:13:32.080Z,70.82
2023-02-22T16:16:03.551Z,111.55
2023-02-22T16:18:34.929Z,85.30
2023-02-22T16:21:06.631Z,65.85
2023-02-22T16:23:46.328Z,56.08
2023-02-22T16:26:31.938Z,40.13
2023-02-22T16:29:04.261Z,28.85
2023-02-22T16:31:37.554Z,32.88
2023-02-22T16:34:08.691Z,35.20
2023-02-22T16:36:43.266Z,32.08
2023-02-22T16:39:19.153Z,31.08
2023-02-22T16:41:51.075Z,44.30
2023-02-22T16:44:19.866Z,51.95
2023-02-22T16:46:48.799Z,39.95
2023-02-22T16:49:17.629Z,46.08
2023-02-22T16:51:55.422Z,34.20
2023-02-22T16:54:34.476Z,45.22
2023-02-22T16:57:16.228Z,38.47
2023-02-22T16:59:45.139Z,48.38
2023-02-22T17:02:15.582Z,43.70
2023-02-22T17:04:49.415Z,41.22
2023-02-22T17:07:20.835Z,37.20
2023-02-22T17:09:51.141Z,44.97
2023-02-22T17:12:21.337Z,34.58
2023-02-22T17:14:50.037Z,39.05
2023-02-22T17:17:21.452Z,36.97
2023-02-22T17:19:50.229Z,30.90
2023-02-22T17:22:23.664Z,33.42
2023-02-22T17:24:52.519Z,34.75
2023-02-22T17:27:22.740Z,32.47
2023-02-22T17:29:51.426Z,33.47
2023-02-22T17:32:20.375Z,28.77
2023-02-22T17:34:49.322Z,32.17
2023-02-22T17:37:17.993Z,37.37
2023-02-22T17:39:47.173Z,33.35
2023-02-22T17:42:15.929Z,28.08
2023-02-22T17:44:45.981Z,36.80
2023-02-22T17:47:14.877Z,30.70
2023-02-22T17:49:46.563Z,33.47
2023-02-22T17:52:16.209Z,27.38
2023-02-22T17:54:44.940Z,28.50
2023-02-22T17:57:13.704Z,31.25
2023-02-22T17:59:42.480Z,31.13
2023-02-22T18:02:12.631Z,28.63
2023-02-22T18:04:44.027Z,31.52
2023-02-22T18:07:16.563Z,28.48
2023-02-22T18:09:45.380Z,26.90
2023-02-22T18:12:14.207Z,36.03
2023-02-22T18:14:43.435Z,28.25
2023-02-22T18:17:14.649Z,26.98
2023-02-22T18:19:43.679Z,26.75
2023-02-22T18:22:12.823Z,33.15
2023-02-22T18:24:41.687Z,31.02
2023-02-22T18:27:12.083Z,32.78
2023-02-22T18:29:42.961Z,31.92
2023-02-22T18:32:13.854Z,31.30
2023-02-22T18:34:45.651Z,39.88
2023-02-22T18:37:14.363Z,35.53
2023-02-22T18:39:48.558Z,35.90
2023-02-22T18:42:23.561Z,35.50
2023-02-22T18:44:52.500Z,36.03
2023-02-22T18:47:25.935Z,30.90
2023-02-22T18:49:57.946Z,39.72
2023-02-22T18:52:34.228Z,31.92
2023-02-22T18:55:03.795Z,35.00
2023-02-22T18:57:32.496Z,35.00
2023-02-22T19:00:01.212Z,37.85
2023-02-22T19:02:31.560Z,40.67
2023-02-22T19:05:03.021Z,35.60
2023-02-22T19:07:37.556Z,39.90
2023-02-22T19:10:07.721Z,35.30
2023-02-22T19:12:38.527Z,33.30
2023-02-22T19:15:08.414Z,37.88
2023-02-22T19:20:11.852Z,36.53
2023-02-22T19:22:43.501Z,38.33
2023-02-22T19:25:15.398Z,38.78
2023-02-22T19:27:46.941Z,37.80
2023-02-22T19:30:17.354Z,38.70
2023-02-22T19:32:47.743Z,35.17
2023-02-22T19:35:26.377Z,40.42
2023-02-22T19:38:02.837Z,40.13
2023-02-22T19:40:34.440Z,38.90
2023-02-22T19:43:07.157Z,43.00
2023-02-22T19:45:36.274Z,43.78
2023-02-22T19:48:07.206Z,38.17
2023-02-22T19:50:36.187Z,38.95
2023-02-22T19:53:05.883Z,46.10
2023-02-22T19:55:40.952Z,43.95
2023-02-22T19:58:15.492Z,44.47
2023-02-22T20:00:44.332Z,41.30
2023-02-22T20:03:16.236Z,43.78
2023-02-22T20:05:45.086Z,40.78
2023-02-22T20:08:14.101Z,45.07
2023-02-22T20:10:46.979Z,59.20
2023-02-22T20:13:17.204Z,107.50
2023-02-22T20:15:46.593Z,73.00
2023-02-22T20:18:16.918Z,68.43
2023-02-22T20:20:45.917Z,51.90
2023-02-22T20:23:14.797Z,47.77
2023-02-22T20:25:43.937Z,48.60
2023-02-22T20:28:16.051Z,48.60
2023-02-22T20:30:45.009Z,49.72
2023-02-22T20:33:14.338Z,51.93
2023-02-22T20:35:46.796Z,56.15
2023-02-22T20:38:16.180Z,84.38
2023-02-22T20:40:46.936Z,97.97
2023-02-22T20:43:20.247Z,128.40
2023-02-22T20:45:49.280Z,116.85
2023-02-22T20:48:19.483Z,96.07
2023-02-22T20:50:49.778Z,73.97
2023-02-22T20:53:18.757Z,79.80
2023-02-22T20:55:50.580Z,83.28
2023-02-22T20:58:20.063Z,92.68
2023-02-22T21:00:49.618Z,86.03
2023-02-22T21:03:18.439Z,78.20
2023-02-22T21:05:51.763Z,84.68
2023-02-22T21:08:20.611Z,73.13
2023-02-22T21:10:50.065Z,68.55
2023-02-22T21:13:18.777Z,81.57
2023-02-22T21:15:49.424Z,85.87
2023-02-22T21:18:18.374Z,72.63
2023-02-22T21:20:47.805Z,69.60
2023-02-22T21:23:20.822Z,70.30
2023-02-22T21:25:53.229Z,54.55
2023-02-22T21:28:32.444Z,58.55
2023-02-22T21:31:18.479Z,60.08
2023-02-22T21:33:51.641Z,68.63
2023-02-22T21:36:21.374Z,62.70
2023-02-22T21:41:40.977Z,71.20
2023-02-22T21:44:09.832Z,75.07
2023-02-22T21:46:38.574Z,71.85
2023-02-22T21:49:07.160Z,73.55
2023-02-22T21:51:37.833Z,57.72
2023-02-22T21:54:09.581Z,51.33
2023-02-22T21:56:40.935Z,55.05
2023-02-22T21:59:13.738Z,46.45
2023-02-22T22:01:47.332Z,44.90
2023-02-22T22:04:19.034Z,46.65
2023-02-22T22:06:51.025Z,60.97
2023-02-22T22:09:23.785Z,86.15
2023-02-22T22:11:58.433Z,59.00
2023-02-22T22:14:28.428Z,46.33
2023-02-22T22:16:59.567Z,44.63
2023-02-22T22:19:29.394Z,54.33
2023-02-22T22:24:30.978Z,51.95
2023-02-22T22:27:03.823Z,55.78
2023-02-22T22:29:34.634Z,45.25
2023-02-22T22:32:03.771Z,46.63
2023-02-22T22:34:34.537Z,45.05
2023-02-22T22:37:03.153Z,43.90
2023-02-22T22:39:33.281Z,43.20
2023-02-22T22:42:02.013Z,48.03
2023-02-22T22:44:33.025Z,43.53
2023-02-22T22:47:01.700Z,51.28
2023-02-22T22:49:32.692Z,50.58
2023-02-22T22:52:02.472Z,48.03
2023-02-22T22:54:35.387Z,39.17
2023-02-22T22:57:06.576Z,43.88
2023-02-22T22:59:38.088Z,43.92
2023-02-22T23:02:10.835Z,39.08
2023-02-22T23:04:39.444Z,45.65
2023-02-22T23:07:13.696Z,41.08
2023-02-22T23:09:46.095Z,43.33
2023-02-22T23:12:17.720Z,42.25
2023-02-22T23:14:47.153Z,45.80
2023-02-22T23:17:31.450Z,39.30
2023-02-22T23:20:00.896Z,43.15
2023-02-22T23:22:30.621Z,45.92
2023-02-22T23:27:37.545Z,42.22
2023-02-22T23:30:08.454Z,40.30
2023-02-22T23:32:37.901Z,40.40
2023-02-22T23:35:20.754Z,37.28
2023-02-22T23:37:53.781Z,36.63
2023-02-22T23:40:26.044Z,41.80
2023-02-22T23:42:55.099Z,38.75
2023-02-22T23:45:28.028Z,40.20
2023-02-22T23:48:00.857Z,39.15
2023-02-22T23:50:31.548Z,47.15
2023-02-22T23:53:03.697Z,39.75
2023-02-22T23:55:39.227Z,41.58
2023-02-22T23:58:08.076Z,37.78
